createdAt,value
2018-06-29T00:01:36.661Z,86.96
2018-06-29T00:04:05.521Z,86.98
2018-06-29T00:06:35.109Z,87.10
2018-06-29T00:09:04.930Z,87.27
2018-06-29T00:11:33.635Z,87.05
2018-06-29T00:14:02.335Z,86.61
2018-06-29T00:16:30.977Z,86.83
2018-06-29T00:18:59.661Z,86.70
2018-06-29T00:21:28.350Z,86.71
2018-06-29T00:23:57.006Z,86.46
2018-06-29T00:26:25.660Z,86.46
2018-06-29T00:28:54.375Z,86.31
2018-06-29T00:31:23.045Z,86.50
2018-06-29T00:33:51.778Z,86.50
2018-06-29T00:36:20.507Z,86.40
2018-06-29T00:38:49.229Z,86.31
2018-06-29T00:41:17.902Z,86.09
2018-06-29T00:43:46.557Z,85.81
2018-06-29T00:46:15.263Z,85.91
2018-06-29T00:48:43.934Z,86.03
2018-06-29T00:51:12.928Z,85.70
2018-06-29T00:53:41.674Z,85.91
2018-06-29T00:56:10.511Z,86.02
2018-06-29T00:58:39.186Z,85.83
2018-06-29T01:01:08.047Z,86.04
2018-06-29T01:03:36.684Z,86.43
2018-06-29T01:06:05.437Z,86.66
2018-06-29T01:08:34.153Z,86.40
2018-06-29T01:11:02.828Z,86.20
2018-06-29T01:13:31.689Z,85.58
2018-06-29T01:16:00.401Z,85.51
2018-06-29T01:18:29.067Z,85.95
2018-06-29T01:20:57.784Z,85.56
2018-06-29T01:23:26.471Z,85.08
2018-06-29T01:25:55.175Z,85.21
2018-06-29T01:28:23.864Z,84.99
2018-06-29T01:30:52.569Z,85.07
2018-06-29T01:33:21.474Z,85.57
2018-06-29T01:35:50.390Z,85.03
2018-06-29T01:38:19.085Z,85.51
2018-06-29T01:40:47.842Z,85.13
2018-06-29T01:43:16.533Z,85.22
2018-06-29T01:45:45.249Z,85.04
2018-06-29T01:48:14.201Z,85.10
2018-06-29T01:50:42.987Z,85.08
2018-06-29T01:53:11.673Z,84.36
2018-06-29T01:55:40.410Z,84.55
2018-06-29T01:58:09.159Z,85.27
2018-06-29T02:00:37.904Z,85.06
2018-06-29T02:03:06.551Z,84.63
2018-06-29T02:05:35.205Z,84.88
2018-06-29T02:08:03.995Z,84.91
2018-06-29T02:10:32.727Z,84.93
2018-06-29T02:13:01.469Z,84.51
2018-06-29T02:15:30.194Z,84.75
2018-06-29T02:17:58.900Z,84.30
2018-06-29T02:20:27.581Z,84.44
2018-06-29T02:22:56.294Z,84.39
2018-06-29T02:25:24.959Z,84.26
2018-06-29T02:27:53.622Z,83.86
2018-06-29T02:30:22.427Z,84.13
2018-06-29T02:32:51.065Z,83.82
2018-06-29T02:35:19.739Z,83.97
2018-06-29T02:37:48.389Z,83.83
2018-06-29T02:40:17.059Z,84.34
2018-06-29T02:42:45.729Z,84.14
2018-06-29T02:45:14.495Z,84.62
2018-06-29T02:47:43.413Z,85.19
2018-06-29T02:50:12.174Z,85.70
2018-06-29T02:52:40.829Z,86.19
2018-06-29T02:55:09.473Z,86.48
2018-06-29T02:57:38.185Z,86.80
2018-06-29T03:00:07.681Z,87.21
2018-06-29T03:02:36.347Z,87.32
2018-06-29T03:05:05.066Z,86.81
2018-06-29T03:07:33.801Z,86.86
2018-06-29T03:10:02.753Z,87.40
2018-06-29T03:12:31.364Z,87.15
2018-06-29T03:15:00.059Z,87.16
2018-06-29T03:17:28.906Z,87.20
2018-06-29T03:19:57.573Z,87.06
2018-06-29T03:22:26.235Z,87.02
2018-06-29T03:24:55.376Z,87.03
2018-06-29T03:27:23.993Z,87.67
2018-06-29T03:29:52.617Z,87.10
2018-06-29T03:32:21.307Z,87.37
2018-06-29T03:34:49.984Z,87.07
2018-06-29T03:37:18.631Z,86.98
2018-06-29T03:39:47.366Z,86.84
2018-06-29T03:42:16.102Z,86.45
2018-06-29T03:44:44.791Z,86.92
2018-06-29T03:47:13.517Z,86.77
2018-06-29T03:49:42.186Z,86.99
2018-06-29T03:52:11.454Z,86.16
2018-06-29T03:54:40.100Z,85.36
2018-06-29T03:57:08.838Z,85.36
2018-06-29T03:59:37.599Z,85.36
2018-06-29T04:02:06.280Z,84.93
2018-06-29T04:04:34.962Z,85.55
2018-06-29T04:07:03.625Z,85.33
2018-06-29T04:09:32.287Z,85.11
2018-06-29T04:12:00.980Z,85.04
2018-06-29T04:14:29.747Z,85.24
2018-06-29T04:16:58.454Z,85.16
2018-06-29T04:19:27.207Z,85.16
2018-06-29T04:21:55.905Z,85.39
2018-06-29T04:24:24.628Z,85.25
2018-06-29T04:26:53.645Z,85.89
2018-06-29T04:29:22.346Z,85.81
2018-06-29T04:31:51.001Z,86.11
2018-06-29T04:34:19.730Z,86.03
2018-06-29T04:36:48.479Z,86.30
2018-06-29T04:39:17.167Z,86.03
2018-06-29T04:41:45.857Z,86.56
2018-06-29T04:44:14.549Z,85.93
2018-06-29T04:46:43.224Z,86.32
2018-06-29T04:53:48.383Z,85.65
2018-06-29T04:56:17.077Z,86.12
2018-06-29T04:58:45.774Z,85.64
2018-06-29T05:01:15.425Z,84.99
2018-06-29T05:03:44.062Z,84.88
2018-06-29T05:06:12.698Z,84.68
2018-06-29T05:08:41.350Z,84.93
2018-06-29T05:11:10.104Z,83.64
2018-06-29T05:13:38.781Z,84.11
2018-06-29T05:16:07.471Z,83.99
2018-06-29T05:18:36.151Z,84.25
2018-06-29T05:21:04.796Z,82.37
2018-06-29T05:23:33.513Z,82.10
2018-06-29T05:26:02.183Z,82.05
2018-06-29T05:28:30.868Z,82.75
2018-06-29T05:34:31.216Z,81.84
2018-06-29T05:36:59.897Z,81.04
2018-06-29T05:39:28.565Z,81.31
2018-06-29T05:41:57.237Z,81.53
2018-06-29T05:44:25.957Z,80.63
2018-06-29T05:46:54.681Z,80.92
2018-06-29T05:49:23.400Z,79.83
2018-06-29T05:51:52.093Z,80.33
2018-06-29T05:54:20.780Z,80.63
2018-06-29T05:56:49.462Z,80.76
2018-06-29T05:59:18.543Z,80.46
2018-06-29T06:01:47.381Z,79.64
2018-06-29T06:04:16.118Z,79.84
2018-06-29T06:06:44.829Z,79.65
2018-06-29T06:09:13.621Z,79.95
2018-06-29T06:11:42.261Z,79.16
2018-06-29T06:14:11.044Z,78.78
2018-06-29T06:16:39.700Z,79.08
2018-06-29T06:19:19.477Z,79.25
2018-06-29T06:21:48.206Z,79.10
2018-06-29T06:24:16.904Z,78.60
2018-06-29T06:26:45.602Z,78.64
2018-06-29T06:29:14.238Z,79.00
2018-06-29T06:31:43.042Z,78.73
2018-06-29T06:34:11.712Z,79.30
2018-06-29T06:36:40.361Z,78.84
2018-06-29T06:39:11.392Z,78.62
2018-06-29T06:41:40.230Z,78.32
2018-06-29T06:44:09.408Z,77.36
2018-06-29T06:46:38.063Z,78.04
2018-06-29T06:49:06.923Z,78.44
2018-06-29T06:51:35.611Z,78.53
2018-06-29T06:54:04.670Z,78.00
2018-06-29T06:56:33.743Z,78.53
2018-06-29T06:59:02.474Z,78.61
2018-06-29T07:01:31.257Z,78.60
2018-06-29T07:03:59.914Z,79.39
2018-06-29T07:06:28.630Z,79.57
2018-06-29T07:08:57.380Z,79.73
2018-06-29T07:11:26.486Z,80.27
2018-06-29T07:13:55.202Z,80.65
2018-06-29T07:16:23.919Z,80.98
2018-06-29T07:18:52.601Z,81.45
2018-06-29T07:21:21.697Z,81.70
2018-06-29T07:23:50.362Z,82.10
2018-06-29T07:26:19.057Z,81.61
2018-06-29T07:28:48.028Z,82.34
2018-06-29T07:31:16.688Z,81.05
2018-06-29T07:33:45.387Z,82.16
2018-06-29T07:36:14.259Z,80.33
2018-06-29T07:38:42.951Z,80.83
2018-06-29T07:41:11.716Z,79.72
2018-06-29T07:43:40.403Z,79.05
2018-06-29T07:46:09.440Z,78.74
2018-06-29T07:48:38.426Z,76.52
2018-06-29T07:51:07.390Z,77.39
2018-06-29T07:53:36.063Z,77.10
2018-06-29T07:56:04.819Z,75.31
2018-06-29T07:58:33.660Z,76.01
2018-06-29T08:01:05.302Z,75.91
2018-06-29T08:03:35.464Z,75.54
2018-06-29T08:06:04.359Z,76.30
2018-06-29T08:08:33.173Z,75.41
2018-06-29T08:11:02.088Z,74.76
2018-06-29T08:13:30.960Z,75.40
2018-06-29T08:15:59.914Z,75.17
2018-06-29T08:18:28.791Z,76.08
2018-06-29T08:20:57.717Z,75.15
2018-06-29T08:23:34.603Z,75.50
2018-06-29T08:26:15.202Z,74.38
2018-06-29T08:28:44.004Z,75.50
2018-06-29T08:31:12.781Z,74.81
2018-06-29T08:33:41.492Z,73.99
2018-06-29T08:36:10.434Z,75.17
2018-06-29T08:38:39.262Z,75.24
2018-06-29T08:41:08.449Z,75.72
2018-06-29T08:43:37.274Z,75.92
2018-06-29T08:46:06.172Z,76.33
2018-06-29T08:48:35.701Z,76.38
2018-06-29T08:51:04.561Z,74.98
2018-06-29T08:53:34.333Z,73.76
2018-06-29T08:56:03.062Z,73.73
2018-06-29T08:58:31.977Z,72.47
2018-06-29T09:01:01.292Z,73.06
2018-06-29T09:03:30.016Z,72.73
2018-06-29T09:05:58.709Z,72.95
2018-06-29T09:08:27.441Z,72.19
2018-06-29T09:10:56.186Z,72.70
2018-06-29T09:13:24.932Z,73.33
2018-06-29T09:15:53.711Z,72.87
2018-06-29T09:18:22.465Z,72.90
2018-06-29T09:20:51.324Z,72.76
2018-06-29T09:23:20.094Z,73.04
2018-06-29T09:25:48.819Z,72.64
2018-06-29T09:28:17.618Z,72.94
2018-06-29T09:30:46.477Z,73.62
2018-06-29T09:33:15.235Z,72.55
2018-06-29T09:35:43.976Z,72.86
2018-06-29T09:38:12.657Z,72.83
2018-06-29T09:40:41.440Z,72.96
2018-06-29T09:43:10.661Z,72.85
2018-06-29T09:45:39.489Z,72.23
2018-06-29T09:48:08.424Z,72.48
2018-06-29T09:50:37.032Z,72.70
2018-06-29T09:53:05.828Z,72.16
2018-06-29T09:55:34.916Z,71.39
2018-06-29T09:58:03.814Z,71.54
2018-06-29T10:00:33.475Z,72.29
2018-06-29T10:03:02.282Z,70.71
2018-06-29T10:05:31.106Z,70.66
2018-06-29T10:07:59.881Z,71.17
2018-06-29T10:10:28.667Z,70.05
2018-06-29T10:12:57.414Z,71.38
2018-06-29T10:15:26.182Z,70.02
2018-06-29T10:17:54.922Z,70.72
2018-06-29T10:20:23.669Z,70.32
2018-06-29T10:22:52.436Z,70.22
2018-06-29T10:25:21.235Z,70.17
2018-06-29T10:27:50.264Z,70.42
2018-06-29T10:30:19.066Z,69.73
2018-06-29T10:32:47.803Z,69.86
2018-06-29T10:35:16.544Z,69.31
2018-06-29T10:37:45.265Z,69.46
2018-06-29T10:40:14.068Z,70.42
2018-06-29T10:42:42.871Z,71.23
2018-06-29T10:45:11.646Z,72.09
2018-06-29T10:47:40.450Z,72.63
2018-06-29T10:50:09.352Z,73.58
2018-06-29T10:52:38.090Z,74.42
2018-06-29T10:55:06.954Z,74.28
2018-06-29T10:57:35.671Z,75.63
2018-06-29T11:00:05.668Z,77.88
2018-06-29T11:02:34.505Z,78.95
2018-06-29T11:05:03.280Z,80.35
2018-06-29T11:07:32.067Z,81.13
2018-06-29T11:10:00.753Z,81.35
2018-06-29T11:12:29.696Z,80.73
2018-06-29T11:14:58.538Z,80.91
2018-06-29T11:17:27.257Z,82.23
2018-06-29T11:19:56.030Z,82.62
2018-06-29T11:22:24.736Z,82.17
2018-06-29T11:24:53.663Z,82.67
2018-06-29T11:27:22.544Z,82.64
2018-06-29T11:29:51.266Z,84.20
2018-06-29T11:32:20.535Z,82.82
2018-06-29T11:34:49.738Z,83.70
2018-06-29T11:37:18.931Z,84.60
2018-06-29T11:39:47.826Z,84.54
2018-06-29T11:42:16.583Z,85.39
2018-06-29T11:44:45.376Z,85.27
2018-06-29T11:47:14.134Z,84.45
2018-06-29T11:49:43.108Z,84.30
2018-06-29T11:52:11.995Z,84.09
2018-06-29T11:54:40.722Z,84.10
2018-06-29T11:57:09.473Z,84.03
2018-06-29T11:59:38.469Z,83.38
2018-06-29T12:02:07.275Z,83.09
2018-06-29T12:04:35.963Z,82.97
2018-06-29T12:07:05.104Z,82.00
2018-06-29T12:09:33.819Z,83.77
2018-06-29T12:12:03.388Z,83.43
2018-06-29T12:14:32.227Z,84.32
2018-06-29T12:17:01.951Z,81.56
2018-06-29T12:19:30.810Z,82.92
2018-06-29T12:21:59.562Z,83.45
2018-06-29T12:24:28.327Z,82.79
2018-06-29T12:26:57.037Z,83.33
2018-06-29T12:29:25.899Z,84.26
2018-06-29T12:31:54.585Z,83.27
2018-06-29T12:34:23.404Z,81.81
2018-06-29T12:36:52.124Z,81.10
2018-06-29T12:39:20.878Z,81.34
2018-06-29T12:41:49.692Z,81.28
2018-06-29T12:44:19.152Z,81.08
2018-06-29T12:46:47.831Z,81.74
2018-06-29T12:49:16.516Z,82.73
2018-06-29T12:51:45.138Z,81.35
2018-06-29T12:54:13.815Z,82.35
2018-06-29T12:56:42.472Z,81.20
2018-06-29T12:59:11.124Z,81.12
2018-06-29T13:01:39.875Z,81.97
2018-06-29T13:04:08.544Z,81.51
2018-06-29T13:06:37.181Z,80.91
2018-06-29T13:09:08.801Z,80.15
2018-06-29T13:11:37.488Z,82.05
2018-06-29T13:14:06.403Z,78.31
2018-06-29T13:16:35.354Z,78.60
2018-06-29T13:19:04.103Z,78.67
2018-06-29T13:21:32.807Z,76.87
2018-06-29T13:24:01.552Z,77.61
2018-06-29T13:26:30.315Z,78.68
2018-06-29T13:28:58.976Z,78.07
2018-06-29T13:31:27.624Z,77.58
2018-06-29T13:33:56.310Z,76.27
2018-06-29T13:36:25.009Z,77.95
2018-06-29T13:38:53.714Z,77.40
2018-06-29T13:41:22.395Z,78.06
2018-06-29T13:43:51.046Z,77.19
2018-06-29T13:46:19.754Z,78.16
2018-06-29T13:48:48.453Z,77.31
2018-06-29T13:51:17.183Z,76.69
2018-06-29T13:53:45.846Z,75.19
2018-06-29T13:56:14.648Z,73.89
2018-06-29T13:58:43.343Z,74.32
2018-06-29T14:01:12.028Z,73.54
2018-06-29T14:03:40.673Z,72.79
2018-06-29T14:06:09.512Z,73.82
2018-06-29T14:08:38.221Z,74.42
2018-06-29T14:11:06.881Z,74.90
2018-06-29T14:13:35.558Z,74.70
2018-06-29T14:16:04.295Z,75.18
2018-06-29T14:18:33.030Z,75.10
2018-06-29T14:21:01.749Z,74.65
2018-06-29T14:23:30.760Z,72.88
2018-06-29T14:25:59.366Z,73.46
2018-06-29T14:28:28.013Z,76.19
2018-06-29T14:30:56.636Z,76.81
2018-06-29T14:33:25.273Z,76.94
2018-06-29T14:35:54.081Z,76.87
2018-06-29T14:38:23.001Z,77.42
2018-06-29T14:40:51.749Z,78.35
2018-06-29T14:43:20.374Z,79.14
2018-06-29T14:45:49.093Z,77.97
2018-06-29T14:48:17.886Z,78.64
2018-06-29T14:50:46.596Z,77.97
2018-06-29T14:53:15.244Z,77.45
2018-06-29T14:55:43.963Z,78.10
2018-06-29T14:58:12.651Z,76.80
2018-06-29T15:00:41.507Z,77.11
2018-06-29T15:03:10.176Z,77.98
2018-06-29T15:05:38.989Z,75.55
2018-06-29T15:08:08.336Z,75.87
2018-06-29T15:10:37.047Z,76.25
2018-06-29T15:13:06.064Z,76.88
2018-06-29T15:15:34.894Z,75.95
2018-06-29T15:18:03.584Z,75.51
2018-06-29T15:20:32.634Z,76.17
2018-06-29T15:23:01.339Z,76.49
2018-06-29T15:25:30.289Z,77.00
2018-06-29T15:27:59.012Z,77.43
2018-06-29T15:30:27.775Z,77.94
2018-06-29T15:32:56.453Z,78.20
2018-06-29T15:35:25.161Z,78.41
2018-06-29T15:37:54.018Z,78.21
2018-06-29T15:40:22.763Z,78.41
2018-06-29T15:42:51.513Z,78.83
2018-06-29T15:45:20.410Z,78.80
2018-06-29T15:47:49.051Z,79.09
2018-06-29T15:50:17.732Z,78.80
2018-06-29T15:52:46.457Z,79.42
2018-06-29T15:55:15.210Z,79.22
2018-06-29T15:57:43.948Z,79.46
2018-06-29T16:00:12.698Z,79.30
2018-06-29T16:02:41.413Z,79.76
2018-06-29T16:05:10.117Z,77.66
2018-06-29T16:07:38.921Z,79.88
2018-06-29T16:10:07.710Z,80.53
2018-06-29T16:12:36.404Z,80.66
2018-06-29T16:15:05.195Z,80.71
2018-06-29T16:17:34.405Z,80.37
2018-06-29T16:20:03.149Z,80.60
2018-06-29T16:22:32.105Z,81.17
2018-06-29T16:25:00.833Z,81.08
2018-06-29T16:27:29.653Z,81.39
2018-06-29T16:29:58.371Z,81.73
2018-06-29T16:32:27.128Z,82.52
2018-06-29T16:34:55.955Z,83.33
2018-06-29T16:37:24.663Z,83.39
2018-06-29T16:39:53.404Z,83.65
2018-06-29T16:42:22.834Z,83.83
2018-06-29T16:44:51.581Z,83.57
2018-06-29T16:47:20.356Z,82.87
2018-06-29T16:49:49.115Z,83.19
2018-06-29T16:52:17.783Z,83.09
2018-06-29T16:54:46.469Z,82.76
2018-06-29T16:57:15.322Z,82.71
2018-06-29T16:59:44.415Z,82.64
2018-06-29T17:02:13.090Z,84.10
2018-06-29T17:04:41.810Z,83.79
2018-06-29T17:07:10.463Z,83.42
2018-06-29T17:09:39.212Z,83.08
2018-06-29T17:12:08.198Z,83.64
2018-06-29T17:14:36.967Z,83.61
2018-06-29T17:17:06.207Z,82.88
2018-06-29T17:19:35.654Z,83.34
2018-06-29T17:22:04.422Z,82.89
2018-06-29T17:24:33.244Z,82.45
2018-06-29T17:27:01.951Z,82.11
2018-06-29T17:29:30.662Z,82.51
2018-06-29T17:31:59.374Z,83.03
2018-06-29T17:34:28.399Z,83.00
2018-06-29T17:36:58.204Z,82.74
2018-06-29T17:39:26.867Z,82.94
2018-06-29T17:41:55.560Z,83.04
2018-06-29T17:44:24.281Z,82.82
2018-06-29T17:46:53.243Z,83.40
2018-06-29T17:49:22.500Z,82.75
2018-06-29T17:54:21.107Z,83.17
2018-06-29T17:56:49.934Z,82.76
2018-06-29T17:59:18.673Z,82.62
2018-06-29T18:01:47.497Z,82.85
2018-06-29T18:04:16.183Z,83.19
2018-06-29T18:06:45.290Z,83.38
2018-06-29T18:09:14.033Z,83.49
2018-06-29T18:11:42.873Z,83.17
2018-06-29T18:14:11.677Z,83.96
2018-06-29T18:16:40.522Z,83.76
2018-06-29T18:19:09.297Z,83.58
2018-06-29T18:21:38.051Z,84.19
2018-06-29T18:24:06.868Z,84.83
2018-06-29T18:26:35.895Z,84.46
2018-06-29T18:29:04.809Z,85.25
2018-06-29T18:31:34.037Z,84.79
2018-06-29T18:34:03.114Z,85.16
2018-06-29T18:36:31.895Z,85.28
2018-06-29T18:39:00.701Z,84.54
2018-06-29T18:41:29.441Z,84.83
2018-06-29T18:43:58.134Z,84.59
2018-06-29T18:46:26.904Z,84.91
2018-06-29T18:48:55.816Z,84.39
2018-06-29T18:51:24.524Z,84.46
2018-06-29T18:53:53.271Z,85.14
2018-06-29T18:56:22.097Z,84.67
2018-06-29T18:58:51.051Z,85.02
2018-06-29T19:01:19.881Z,85.13
2018-06-29T19:03:48.633Z,85.27
2018-06-29T19:06:17.378Z,85.57
2018-06-29T19:08:46.128Z,84.93
2018-06-29T19:11:14.945Z,84.91
2018-06-29T19:13:43.806Z,85.07
2018-06-29T19:16:12.512Z,85.14
2018-06-29T19:18:41.493Z,85.26
2018-06-29T19:21:11.309Z,85.25
2018-06-29T19:23:40.669Z,84.33
2018-06-29T19:26:09.460Z,84.25
2018-06-29T19:28:38.236Z,83.77
2018-06-29T19:31:07.006Z,83.91
2018-06-29T19:33:35.764Z,83.73
2018-06-29T19:36:04.597Z,83.51
2018-06-29T19:38:33.517Z,83.51
2018-06-29T19:41:02.214Z,83.58
2018-06-29T19:43:30.918Z,83.10
2018-06-29T19:45:59.699Z,83.05
2018-06-29T19:48:28.497Z,83.45
2018-06-29T19:50:57.296Z,83.54
2018-06-29T19:53:26.012Z,83.04
2018-06-29T19:55:54.745Z,82.72
2018-06-29T19:58:23.491Z,83.31
2018-06-29T20:00:52.275Z,83.08
2018-06-29T20:03:21.115Z,82.32
2018-06-29T20:05:49.922Z,82.53
2018-06-29T20:08:18.636Z,82.38
2018-06-29T20:10:47.431Z,82.53
2018-06-29T20:13:16.217Z,82.38
2018-06-29T20:15:45.029Z,82.36
2018-06-29T20:18:13.701Z,82.73
2018-06-29T20:20:42.511Z,82.50
2018-06-29T20:23:11.232Z,80.55
2018-06-29T20:25:40.466Z,81.83
2018-06-29T20:28:09.561Z,81.79
2018-06-29T20:30:38.313Z,82.77
2018-06-29T20:33:07.100Z,82.78
2018-06-29T20:35:35.851Z,82.92
2018-06-29T20:38:04.543Z,82.63
2018-06-29T20:40:33.323Z,82.53
2018-06-29T20:43:02.000Z,82.23
2018-06-29T20:45:30.737Z,82.31
2018-06-29T20:47:59.448Z,82.51
2018-06-29T20:50:28.627Z,82.80
2018-06-29T20:52:57.337Z,82.71
2018-06-29T20:55:26.076Z,83.11
2018-06-29T20:57:54.775Z,83.59
2018-06-29T21:00:23.652Z,82.74
2018-06-29T21:02:52.440Z,82.91
2018-06-29T21:05:21.312Z,82.40
2018-06-29T21:07:50.141Z,83.12
2018-06-29T21:10:18.809Z,83.15
2018-06-29T21:12:47.493Z,82.71
2018-06-29T21:15:16.604Z,82.98
2018-06-29T21:17:45.281Z,83.05
2018-06-29T21:20:14.255Z,81.54
2018-06-29T21:22:43.866Z,81.64
2018-06-29T21:25:12.634Z,81.71
2018-06-29T21:27:41.317Z,82.39
2018-06-29T21:30:10.031Z,82.65
2018-06-29T21:32:38.779Z,82.79
2018-06-29T21:35:07.597Z,82.90
2018-06-29T21:37:36.221Z,82.31
2018-06-29T21:40:04.954Z,82.08
2018-06-29T21:42:34.093Z,82.00
2018-06-29T21:45:02.819Z,81.74
2018-06-29T21:47:31.501Z,82.28
2018-06-29T21:50:00.188Z,82.22
2018-06-29T21:52:28.972Z,80.85
2018-06-29T21:54:57.623Z,80.22
2018-06-29T21:57:26.391Z,79.63
2018-06-29T21:59:55.151Z,79.83
2018-06-29T22:02:23.882Z,79.63
2018-06-29T22:04:52.568Z,81.39
2018-06-29T22:07:21.312Z,80.91
2018-06-29T22:09:50.029Z,80.68
2018-06-29T22:12:19.177Z,80.00
2018-06-29T22:14:48.048Z,80.48
2018-06-29T22:17:16.828Z,81.00
2018-06-29T22:19:45.593Z,80.40
2018-06-29T22:22:14.324Z,80.69
2018-06-29T22:24:43.011Z,80.31
2018-06-29T22:27:11.781Z,80.32
2018-06-29T22:29:40.458Z,79.39
2018-06-29T22:32:09.250Z,79.53
2018-06-29T22:34:37.891Z,79.57
2018-06-29T22:37:06.750Z,79.32
2018-06-29T22:39:35.640Z,78.49
2018-06-29T22:42:04.294Z,78.44
2018-06-29T22:44:33.239Z,78.66
2018-06-29T22:47:01.922Z,79.31
2018-06-29T22:49:30.622Z,78.52
2018-06-29T22:51:59.306Z,79.87
2018-06-29T22:54:28.036Z,80.56
2018-06-29T22:56:56.793Z,80.83
2018-06-29T22:59:25.472Z,81.60
2018-06-29T23:01:54.178Z,82.18
2018-06-29T23:04:22.923Z,82.13
2018-06-29T23:06:51.591Z,83.05
2018-06-29T23:09:20.231Z,83.39
2018-06-29T23:11:48.945Z,83.55
2018-06-29T23:14:48.046Z,83.72
2018-06-29T23:17:16.717Z,84.08
2018-06-29T23:19:45.869Z,83.89
2018-06-29T23:22:14.536Z,83.70
2018-06-29T23:24:43.223Z,82.80
2018-06-29T23:27:11.902Z,82.72
2018-06-29T23:29:40.553Z,83.04
2018-06-29T23:32:09.359Z,82.14
2018-06-29T23:34:38.014Z,82.13
2018-06-29T23:37:06.688Z,81.08
2018-06-29T23:39:36.390Z,81.81
2018-06-29T23:42:05.066Z,81.11
2018-06-29T23:44:33.819Z,80.30
2018-06-29T23:47:02.487Z,81.24
2018-06-29T23:49:31.165Z,81.47
2018-06-29T23:51:59.778Z,81.46
2018-06-29T23:54:28.437Z,81.96
2018-06-29T23:56:57.116Z,82.18
2018-06-29T23:59:25.811Z,81.86
